航空気象通報

ウインドサーファーのための航空気象通報による風予報です。

7/30-8/1の航空気象通報

2015年07月30日 20時58分48秒 | TAF
羽田空港
TAF RJTT 301107Z 3012/3118 18006KT 9999 FEW020
日本時間30日21時-1日03時:180度から6ノットの風

静岡空港
TAF RJNS 301111Z 3012/3118 30004KT 6000 FEW008 BKN015
TEMPO 3012/3015 4000 BR FEW003 BKN005
TEMPO 3015/3022 3000 BR FEW003 BKN005
BECMG 3100/3103 14008KT
BECMG 3109/3112 26005KT
日本時間30日21時-31日09時:300度から4ノットの風
09-12時:風が変化
12-18時:140度から8ノットの風
18-21時:風が変化
21時-1日03時:260度から5ノットの風

福岡空港
TAF RJFF 301107Z 3012/3118 14003KT 9999 FEW025
BECMG 3100/3103 31011KT
BECMG 3109/3112 13003KT
日本時間30日21時-31日09時:140度から3ノットの風
09-12時:風が変化
12-18時:310度から11ノットの風
18-21時:風が変化
21時-1日03時:130度から3ノットの風

那覇空港
TAF ROAH 301105Z 3012/3118 34006KT 9999 FEW020
日本時間30日21時-1日03時:340度から6ノットの風

石垣空港
ROIG 301106Z 3012/3118 18004KT 9999 FEW025
BECMG 3100/3103 11006KT
日本時間30日21時-31日09時:180度から4ノットの風
09-12時:風が変化
12時-1日03時:110度から6ノットの風

マウイのカフルイ空港
PHOG 301120Z 3012/3112 06008KT P6SM SCT050
FM302000 05018G28KT P6SM SCT050
FM310400 06015G25KT P6SM SCT050
FM311100 06008KT P6SM SCT050 AMD LTD TO VIS AND WIND TIL 301600
日本時間30日02-10時:060度から8ノットの風
10-18時:050度から18ノット、突風28ノット
18時-31日01時:060度から15ノット、突風25ノット
01-02時:060度から8ノットの風

サイパン空港
TAF PGSN 301120Z 3012/3112 15005KT P6SM VCSH FEW020
マリアナ時間30日22時-31日22時:150度から5ノットの風
コメント
この記事をはてなブックマークに追加

7/28-7/30の航空気象通報

2015年07月28日 21時18分23秒 | TAF

羽田空港
TAF RJTT 281105Z 2812/2918 16008KT 9999 FEW030
BECMG 2813/2815 05005KT
BECMG 2822/2824 12006KT
BECMG 2906/2909 20010KT
日本時間28日21-22時:160度から8ノットの風
22-24時:風が変化
29日00-07時:050度から5ノットの風
07-09時:風が変化
09-15時:120度から6ノットの風
15-18時:風が変化
18時-30日03時:200度から10ノットの風

静岡空港
TAF RJNS 281105Z 2812/2918 32004KT 9999 FEW010
BECMG 2822/2824 16008KT
BECMG 2909/2912 26004KT
日本時間28日21時-29日07時:320度から4ノットの風
07-09時:風が変化
09-18時:160度から8ノットの風
18-21時:風が変化
21時-30日03時:260度から4ノットの風

福岡空港
TAF RJFF 281106Z 2812/2918 15005KT 9999 FEW020
BECMG 2900/2903 34010KT
BECMG 2909/2912 15005KT
日本時間28日21時-29日09時:150度から5ノットの風
09-12時:風が変化
12-18時:340度から10ノットの風
29日00-03時:風が変化
03時:150度から5ノットの風

那覇空港
TAF ROAH 281105Z 2812/2918 22008KT 9999 FEW015
日本時間28日21時-30日03時:220度から8ノットの風

石垣空港
TAF ROIG 281106Z 2812/2918 21006KT 9999 FEW015
日本時間28日21時-30日03時:210度から6ノットの風

マウイのカフルイ空港
PHOG 281120Z 2812/2912 13006KT P6SM FEW030 SCT050
FM282000 06015G24KT P6SM FEW035 SCT050
FM290500 06010KT P6SM FEW030 SCT050 AMD LTD TO VIS AND WIND TIL 281600
ハワイ時間28日02-10時:130度から6ノットの風
10-19時:060度から15ノット、突風24ノット
19時-29日02時:060度から10ノットの風

サイパン空港
TAF PGSN 281125Z 2812/2912 VRB04KT P6SM VCSH FEW022
マリアナ時間28日22時-29日22時:風向不定4ノットの風

コメント
この記事をはてなブックマークに追加

7/27-7/29の航空気象通報

2015年07月27日 23時31分09秒 | TAF

羽田空港
TAF RJTT 271105Z 2712/2818 20012KT 9999 FEW030
BECMG 2719/2721 36008KT
日本時間27日21時-28日04時:200度から12ノットの風
04-06時:風が変化
06時-29日03時:360度から8ノットの風

静岡空港
TAF RJNS 271105Z 2712/2818 26008KT 9999 FEW010 SCT020
BECMG 2800/2803 12006KT
BECMG 2809/2812 34004KT
日本時間27日21時-28日09時:260度から8ノットの風
09-12時:風が変化
12-18時:120度から6ノットの風
18-21時:風が変化
21時-29日03時:340度から4ノットの風

福岡空港
TAF RJFF 271109Z 2712/2818 15005KT 9999 FEW015 BKN030
TEMPO 2721/2724 4000 -SHRA BR
BECMG 2722/2724 31008KT
BECMG 2815/2818 14003KT
日本時間27日21時-28日07時:150度から5ノットの風
07-09時:風が変化
09-24時:310度から8ノットの風
29日00-03時:風が変化
03時:140度から3ノットの風

但し、28日06-09時の間:ときどき

那覇空港
TAF ROAH 271106Z 2712/2818 19010KT 9999 FEW015
TEMPO 2722/2803 FEW010 SCT020 FEW025CB
日本時間27日21時-29日03時:190度から10ノットの風

石垣空港
TAF ROIG 271111Z 2712/2818 26005KT 9999 FEW020
TEMPO 2803/2806 FEW015 SCT020 FEW025CB
日本時間27日21時-29日03時:260度から5ノットの風

マウイのカフルイ空港
PHOG 271132Z 2712/2812 13005KT P6SM FEW050
FM272100 05015G25KT P6SM FEW035 SCT050
FM280600 07010KT P6SM FEW035 SCT050
FM281000 13005KT P6SM FEW035 SCT050 AMD LTD TO VIS AND WIND TIL 271600
ハワイ時間27日02-11時:130度から5ノットの風
11-20時:050度から15ノット、突風25ノット
20-24時:070度から10ノットの風
28日00-02時:130度から5ノットの風

サイパン空港
TAF PGSN 271131Z 2712/2812 VRB06KT P6SM VCSH FEW022
マリアナ時間27日22時-28日22時:風向不定6ノットの風

コメント
この記事をはてなブックマークに追加

7/26-7/28の航空気象通報

2015年07月26日 23時51分42秒 | TAF

羽田空港
TAF RJTT 261107Z 2612/2718 12006KT 9999 FEW020
BECMG 2616/2618 02004KT
BECMG 2622/2624 10006KT
BECMG 2703/2706 18016KT
日本時間26日21時-27日01時:120度から6ノットの風
01-03時:風が変化
03-07時:020度から4ノットの風
07-09時:風が変化
09-12時:100度から6ノットの風
12-15時:風が変化
15時-28日03時:180度から16ノットの風

静岡空港
TAF RJNS 261105Z 2612/2718 27010KT 9999 FEW020
日本時間26日21時-28日03時:270度から10ノットの風

福岡空港
TAF RJFF 261105Z 2612/2718 17018KT 7000 -SHRA FEW008 SCT010 BKN015
TEMPO 2612/2614 17018G30KT 4000 -SHRA BR
BECMG 2614/2616 25018KT
TEMPO 2614/2618 24018G30KT 3000 SHRA BR
BECMG 2619/2621 18009KT
BECMG 2700/2703 31008KT
日本時間26日21-23時:170度から18ノットの風
但し、26日21-23時の間:ときどき170度から18ノット、突風30ノット
23時-27日01時:風が変化
01-04時:250度から18ノットの風
但し、26日23時-27日03時の間:ときどき240度から18ノット、突風30ノット
04-06時:風が変化
06-09時:180度から9ノットの風
09-12時:風が変化
12時-28日03時:310度から8ノットの風

那覇空港
TAF ROAH 261105Z 2612/2718 18008KT 9999 FEW015
日本時間26日21時-28日03時:180度から8ノットの風

石垣空港
TAF ROIG 261107Z 2612/2718 16008KT 9999 FEW015 SCT025
TEMPO 2700/2706 FEW010 SCT020 FEW025CB
日本時間26日21時-28日03時:160度から8ノットの風

マウイのカフルイ空港
PHOG 261121Z 2612/2712 13005KT P6SM FEW035 SCT060
FM262000 05015G22KT P6SM FEW035 SCT060
FM270500 05010KT P6SM SCT040 BKN060 AMD LTD TO VIS AND WIND TIL 261600
ハワイ時間26日02-10時:130度から5ノットの風
10-19時:050度から15ノット、突風22ノット

19時-27日02時:050度から10ノットの風

サイパン空港
TAF PGSN 261134Z 2612/2712 VRB04KT P6SM VCSH FEW022 FEW110
マリアナ時間26日22時-27日22時:風向不定4ノットの風

コメント
この記事をはてなブックマークに追加

7/25-7/27の航空気象通報

2015年07月25日 22時01分34秒 | TAF

羽田空港
TAF RJTT 251105Z 2512/2618 18006KT 9999 FEW015
BECMG 2514/2516 04004KT
BECMG 2522/2524 10005KT
BECMG 2600/2603 18012KT
日本時間25日21-23時:180度から6ノットの風
23時-26日01時:風が変化
01-07時:040度から4ノットの風
07-09時:風が変化
09時:100度から4ノットの風
09-12時:風が変化
12時-27日03時:180度から12ノットの風

静岡空港
TAF RJNS 251105Z 2512/2618 27010KT 9999 FEW012
日本時間25日21時-27日03時:270度から10ノットの風

福岡空港
TAF RJFF 251106Z 2512/2618 33005KT 9999 FEW035
BECMG 2512/2514 14005KT
BECMG 2600/2603 08011KT
BECMG 2609/2612 15014KT
TEMPO 2612/2618 4000 -SHRA BR
日本時間25日21時:330度から5ノットの風
21-23時:風が変化
23時-26日09時:140度から5ノットの風
09-12時:風が変化
12-18時:080度から11ノットの風
18-21時:風が変化
21時-27日03時:150度から14ノットの風

但し、26日21時-27日03時の間:ときどき

那覇空港
TAF ROAH 251107Z 2512/2618 21016KT 9999 FEW015 SCT025
日本時間25日21時-27日03時:210度から16ノットの風

石垣空港
TAF ROIG 251109Z 2512/2618 19008KT 9999 FEW020 SCT030
日本時間25日21時-27日03時:190度から8ノットの風

マウイのカフルイ空港
PHOG 251122Z 2512/2612 04010KT P6SM FEW040 SCT060
FM252000 04015G25KT P6SM FEW035 SCT060
FM260500 05008KT P6SM SCT035 BKN060 AMD LTD TO VIS AND WIND TIL 251600
ハワイ時間25日02-10時:040度から10ノットの風
10-19時:040度から15ノット、突風25ノット

19時-26日02時:050度から8ノットの風

サイパン空港
TAF PGSN 251135Z 2512/2612 08006KT P6SM VCSH SCT020 SCT110
マリアナ時間25日22時-26日22時:080度から6ノットの風

コメント
この記事をはてなブックマークに追加